sensor_id;sensor_type;location;lat;lon;timestamp;pressure;altitude;pressure_sealevel;temperature;humidity
77120;BME280;66073;47.730;9.352;2023-01-24T00:02:00;97800.91;;;1.73;77.67
77120;BME280;66073;47.730;9.352;2023-01-24T00:04:25;97802.63;;;1.60;77.48
77120;BME280;66073;47.730;9.352;2023-01-24T00:06:51;97801.13;;;1.29;79.02
77120;BME280;66073;47.730;9.352;2023-01-24T00:09:16;97801.19;;;1.36;78.97
77120;BME280;66073;47.730;9.352;2023-01-24T00:11:42;97800.25;;;1.22;78.91
77120;BME280;66073;47.730;9.352;2023-01-24T00:14:07;97805.44;;;1.16;79.44
77120;BME280;66073;47.730;9.352;2023-01-24T00:16:33;97799.56;;;1.35;79.04
77120;BME280;66073;47.730;9.352;2023-01-24T00:18:58;97796.94;;;1.35;79.23
77120;BME280;66073;47.730;9.352;2023-01-24T00:21:24;97794.53;;;1.40;79.12
77120;BME280;66073;47.730;9.352;2023-01-24T00:23:52;97797.19;;;1.40;78.59
77120;BME280;66073;47.730;9.352;2023-01-24T00:26:20;97790.66;;;1.36;78.78
77120;BME280;66073;47.730;9.352;2023-01-24T00:28:46;97794.25;;;1.77;77.48
77120;BME280;66073;47.730;9.352;2023-01-24T00:31:12;97791.28;;;1.87;77.36
77120;BME280;66073;47.730;9.352;2023-01-24T00:33:38;97798.03;;;2.24;75.07
77120;BME280;66073;47.730;9.352;2023-01-24T00:36:04;97798.66;;;1.70;77.21
77120;BME280;66073;47.730;9.352;2023-01-24T00:38:30;97803.59;;;1.80;76.94
77120;BME280;66073;47.730;9.352;2023-01-24T00:40:57;97801.47;;;1.69;77.08
77120;BME280;66073;47.730;9.352;2023-01-24T00:43:22;97808.63;;;1.75;77.51
77120;BME280;66073;47.730;9.352;2023-01-24T00:45:48;97806.09;;;1.39;78.28
77120;BME280;66073;47.730;9.352;2023-01-24T00:48:14;97804.56;;;1.51;78.25
77120;BME280;66073;47.730;9.352;2023-01-24T00:50:40;97818.59;;;1.37;78.86
77120;BME280;66073;47.730;9.352;2023-01-24T00:53:05;97815.59;;;1.19;79.01
77120;BME280;66073;47.730;9.352;2023-01-24T00:55:32;97829.50;;;1.34;78.84
77120;BME280;66073;47.730;9.352;2023-01-24T00:57:59;97837.88;;;1.65;77.75
77120;BME280;66073;47.730;9.352;2023-01-24T01:00:25;97838.00;;;1.36;78.34
77120;BME280;66073;47.730;9.352;2023-01-24T01:02:51;97827.25;;;1.52;78.05
77120;BME280;66073;47.730;9.352;2023-01-24T01:05:17;97832.19;;;1.62;77.61
77120;BME280;66073;47.730;9.352;2023-01-24T01:07:43;97824.72;;;1.65;78.01
77120;BME280;66073;47.730;9.352;2023-01-24T01:10:09;97835.75;;;1.54;78.09
77120;BME280;66073;47.730;9.352;2023-01-24T01:12:35;97836.50;;;1.48;78.69
77120;BME280;66073;47.730;9.352;2023-01-24T01:15:01;97837.88;;;1.65;78.31
77120;BME280;66073;47.730;9.352;2023-01-24T01:17:27;97837.81;;;1.80;76.98
77120;BME280;66073;47.730;9.352;2023-01-24T01:19:53;97833.44;;;1.93;76.40
77120;BME280;66073;47.730;9.352;2023-01-24T01:22:20;97836.38;;;1.77;77.51
77120;BME280;66073;47.730;9.352;2023-01-24T01:24:46;97842.97;;;1.45;77.90
77120;BME280;66073;47.730;9.352;2023-01-24T01:27:12;97841.28;;;1.38;78.87
77120;BME280;66073;47.730;9.352;2023-01-24T01:29:37;97842.38;;;1.71;77.40
77120;BME280;66073;47.730;9.352;2023-01-24T01:32:03;97843.91;;;1.59;78.08
77120;BME280;66073;47.730;9.352;2023-01-24T01:34:29;97846.28;;;1.54;78.56
77120;BME280;66073;47.730;9.352;2023-01-24T01:36:54;97837.38;;;1.76;77.96
77120;BME280;66073;47.730;9.352;2023-01-24T01:39:20;97846.78;;;1.64;78.26
77120;BME280;66073;47.730;9.352;2023-01-24T01:41:45;97836.13;;;1.51;78.94
77120;BME280;66073;47.730;9.352;2023-01-24T01:44:21;97843.41;;;1.49;79.25
77120;BME280;66073;47.730;9.352;2023-01-24T01:52:38;97840.41;;;1.31;80.58
77120;BME280;66073;47.730;9.352;2023-01-24T01:55:16;97841.28;;;1.38;79.58
77120;BME280;66073;47.730;9.352;2023-01-24T01:57:43;97844.03;;;1.30;80.28
77120;BME280;66073;47.730;9.352;2023-01-24T02:00:16;97842.63;;;1.13;80.60
77120;BME280;66073;47.730;9.352;2023-01-24T02:02:53;97844.09;;;1.36;80.33
77120;BME280;66073;47.730;9.352;2023-01-24T02:05:41;97841.66;;;1.35;80.24
77120;BME280;66073;47.730;9.352;2023-01-24T02:08:09;97845.66;;;1.31;80.59
77120;BME280;66073;47.730;9.352;2023-01-24T02:10:38;97844.94;;;1.22;80.64
77120;BME280;66073;47.730;9.352;2023-01-24T02:13:22;97850.00;;;1.38;79.76
77120;BME280;66073;47.730;9.352;2023-01-24T02:15:51;97844.16;;;1.43;80.11
77120;BME280;66073;47.730;9.352;2023-01-24T02:18:29;97852.69;;;1.45;80.05
77120;BME280;66073;47.730;9.352;2023-01-24T02:20:55;97852.63;;;1.60;79.53
77120;BME280;66073;47.730;9.352;2023-01-24T02:23:46;97854.97;;;1.76;78.93
77120;BME280;66073;47.730;9.352;2023-01-24T02:26:23;97854.53;;;1.30;80.09
77120;BME280;66073;47.730;9.352;2023-01-24T02:29:04;97848.66;;;1.28;80.59
77120;BME280;66073;47.730;9.352;2023-01-24T02:32:02;97853.94;;;1.28;80.74
77120;BME280;66073;47.730;9.352;2023-01-24T02:34:30;97854.88;;;1.63;79.49
77120;BME280;66073;47.730;9.352;2023-01-24T02:37:02;97856.84;;;1.61;79.45
77120;BME280;66073;47.730;9.352;2023-01-24T02:39:45;97849.41;;;1.22;80.76
77120;BME280;66073;47.730;9.352;2023-01-24T02:42:15;97852.91;;;1.29;80.60
77120;BME280;66073;47.730;9.352;2023-01-24T02:44:44;97854.66;;;1.43;79.44
77120;BME280;66073;47.730;9.352;2023-01-24T02:47:12;97853.66;;;1.44;79.93
77120;BME280;66073;47.730;9.352;2023-01-24T02:49:37;97854.09;;;1.26;80.47
77120;BME280;66073;47.730;9.352;2023-01-24T02:52:03;97862.22;;;1.10;81.45
77120;BME280;66073;47.730;9.352;2023-01-24T02:54:47;97852.63;;;1.03;81.42
77120;BME280;66073;47.730;9.352;2023-01-24T02:57:12;97862.78;;;1.06;81.45
77120;BME280;66073;47.730;9.352;2023-01-24T02:59:56;97861.47;;;1.16;81.15
77120;BME280;66073;47.730;9.352;2023-01-24T03:02:22;97856.50;;;1.21;81.14
77120;BME280;66073;47.730;9.352;2023-01-24T03:04:47;97854.91;;;1.27;80.80
77120;BME280;66073;47.730;9.352;2023-01-24T03:07:13;97849.78;;;1.40;80.53
77120;BME280;66073;47.730;9.352;2023-01-24T03:09:38;97851.81;;;1.38;80.02
77120;BME280;66073;47.730;9.352;2023-01-24T03:12:11;97854.22;;;1.39;80.33
77120;BME280;66073;47.730;9.352;2023-01-24T03:14:57;97860.63;;;1.30;80.64
77120;BME280;66073;47.730;9.352;2023-01-24T03:17:40;97863.06;;;1.32;80.40
77120;BME280;66073;47.730;9.352;2023-01-24T03:20:24;97855.69;;;1.21;80.78
77120;BME280;66073;47.730;9.352;2023-01-24T03:23:08;97861.56;;;1.44;80.20
77120;BME280;66073;47.730;9.352;2023-01-24T03:25:53;97864.31;;;1.57;79.56
77120;BME280;66073;47.730;9.352;2023-01-24T03:28:38;97865.25;;;1.28;80.67
77120;BME280;66073;47.730;9.352;2023-01-24T03:31:23;97871.19;;;1.37;80.48
77120;BME280;66073;47.730;9.352;2023-01-24T03:34:07;97874.59;;;1.52;80.33
77120;BME280;66073;47.730;9.352;2023-01-24T03:36:51;97874.78;;;1.50;80.22
77120;BME280;66073;47.730;9.352;2023-01-24T03:39:16;97871.84;;;1.60;79.69
77120;BME280;66073;47.730;9.352;2023-01-24T03:42:00;97883.44;;;1.44;80.27
77120;BME280;66073;47.730;9.352;2023-01-24T03:44:26;97878.91;;;1.38;80.50
77120;BME280;66073;47.730;9.352;2023-01-24T03:46:51;97871.75;;;1.54;80.10
77120;BME280;66073;47.730;9.352;2023-01-24T03:49:17;97875.97;;;1.69;79.48
77120;BME280;66073;47.730;9.352;2023-01-24T03:51:42;97882.22;;;1.47;80.50
77120;BME280;66073;47.730;9.352;2023-01-24T03:54:27;97877.66;;;1.34;81.12
77120;BME280;66073;47.730;9.352;2023-01-24T03:56:53;97878.59;;;1.48;80.52
77120;BME280;66073;47.730;9.352;2023-01-24T03:59:18;97881.22;;;1.48;80.74
77120;BME280;66073;47.730;9.352;2023-01-24T04:01:44;97879.59;;;1.47;80.63
77120;BME280;66073;47.730;9.352;2023-01-24T04:04:09;97885.88;;;1.46;81.12
77120;BME280;66073;47.730;9.352;2023-01-24T04:06:36;97889.13;;;1.48;80.89
77120;BME280;66073;47.730;9.352;2023-01-24T04:09:02;97889.59;;;1.16;82.00
77120;BME280;66073;47.730;9.352;2023-01-24T04:11:28;97890.59;;;1.36;81.18
77120;BME280;66073;47.730;9.352;2023-01-24T04:13:54;97894.97;;;1.29;81.67
77120;BME280;66073;47.730;9.352;2023-01-24T04:16:19;97899.16;;;1.38;81.37
77120;BME280;66073;47.730;9.352;2023-01-24T04:18:45;97893.03;;;1.16;81.67
77120;BME280;66073;47.730;9.352;2023-01-24T04:21:11;97898.00;;;1.26;81.71
77120;BME280;66073;47.730;9.352;2023-01-24T04:23:37;97905.88;;;1.26;81.89
77120;BME280;66073;47.730;9.352;2023-01-24T04:26:03;97903.38;;;1.18;81.56
77120;BME280;66073;47.730;9.352;2023-01-24T04:28:30;97894.09;;;1.22;81.84
77120;BME280;66073;47.730;9.352;2023-01-24T04:31:01;97897.19;;;1.11;82.08
77120;BME280;66073;47.730;9.352;2023-01-24T04:33:27;97897.78;;;1.06;82.17
77120;BME280;66073;47.730;9.352;2023-01-24T04:35:57;97891.19;;;1.31;81.64
77120;BME280;66073;47.730;9.352;2023-01-24T04:38:25;97889.31;;;1.11;82.19
77120;BME280;66073;47.730;9.352;2023-01-24T04:40:58;97887.66;;;1.24;81.71
77120;BME280;66073;47.730;9.352;2023-01-24T04:43:23;97892.72;;;1.26;81.71
77120;BME280;66073;47.730;9.352;2023-01-24T04:45:49;97894.56;;;1.11;81.79
77120;BME280;66073;47.730;9.352;2023-01-24T04:48:14;97898.56;;;1.21;81.86
77120;BME280;66073;47.730;9.352;2023-01-24T04:50:40;97896.72;;;1.22;81.62
77120;BME280;66073;47.730;9.352;2023-01-24T04:53:05;97896.47;;;1.17;81.99
77120;BME280;66073;47.730;9.352;2023-01-24T04:55:31;97891.13;;;1.25;81.79
77120;BME280;66073;47.730;9.352;2023-01-24T04:57:56;97892.50;;;1.21;81.62
77120;BME280;66073;47.730;9.352;2023-01-24T05:00:21;97895.66;;;1.16;81.62
77120;BME280;66073;47.730;9.352;2023-01-24T05:02:50;97894.03;;;1.00;82.22
77120;BME280;66073;47.730;9.352;2023-01-24T05:05:16;97899.69;;;0.97;82.46
77120;BME280;66073;47.730;9.352;2023-01-24T05:07:41;97905.47;;;1.08;82.36
77120;BME280;66073;47.730;9.352;2023-01-24T05:10:07;97908.09;;;1.08;82.43
77120;BME280;66073;47.730;9.352;2023-01-24T05:12:33;97902.22;;;1.06;82.22
77120;BME280;66073;47.730;9.352;2023-01-24T05:14:58;97913.78;;;1.11;82.41
77120;BME280;66073;47.730;9.352;2023-01-24T05:17:24;97915.59;;;1.11;82.13
77120;BME280;66073;47.730;9.352;2023-01-24T05:19:49;97916.97;;;1.21;82.09
77120;BME280;66073;47.730;9.352;2023-01-24T05:22:15;97921.13;;;1.16;82.03
77120;BME280;66073;47.730;9.352;2023-01-24T05:24:40;97920.69;;;1.12;81.98
77120;BME280;66073;47.730;9.352;2023-01-24T05:27:05;97919.88;;;1.12;82.01
77120;BME280;66073;47.730;9.352;2023-01-24T05:29:31;97920.22;;;1.23;81.63
77120;BME280;66073;47.730;9.352;2023-01-24T05:31:56;97923.25;;;1.41;81.48
77120;BME280;66073;47.730;9.352;2023-01-24T05:34:23;97920.63;;;1.41;81.14
77120;BME280;66073;47.730;9.352;2023-01-24T05:36:49;97916.03;;;1.29;81.04
77120;BME280;66073;47.730;9.352;2023-01-24T05:39:15;97923.28;;;1.27;81.37
77120;BME280;66073;47.730;9.352;2023-01-24T05:41:41;97925.19;;;1.18;81.32
77120;BME280;66073;47.730;9.352;2023-01-24T05:44:06;97928.44;;;1.35;81.33
77120;BME280;66073;47.730;9.352;2023-01-24T05:46:32;97926.13;;;1.11;81.76
77120;BME280;66073;47.730;9.352;2023-01-24T05:48:57;97926.78;;;1.13;81.93
77120;BME280;66073;47.730;9.352;2023-01-24T05:51:23;97932.03;;;1.13;81.98
77120;BME280;66073;47.730;9.352;2023-01-24T05:53:48;97932.00;;;1.27;81.88
77120;BME280;66073;47.730;9.352;2023-01-24T05:56:19;97934.22;;;1.09;81.88
77120;BME280;66073;47.730;9.352;2023-01-24T05:58:46;97939.81;;;1.21;81.43
77120;BME280;66073;47.730;9.352;2023-01-24T06:01:15;97938.31;;;1.33;81.11
77120;BME280;66073;47.730;9.352;2023-01-24T06:03:43;97943.81;;;1.17;81.67
77120;BME280;66073;47.730;9.352;2023-01-24T06:06:10;97940.78;;;1.34;81.05
77120;BME280;66073;47.730;9.352;2023-01-24T06:08:37;97941.78;;;1.19;81.54
77120;BME280;66073;47.730;9.352;2023-01-24T06:11:07;97946.16;;;1.12;81.63
77120;BME280;66073;47.730;9.352;2023-01-24T06:13:34;97946.00;;;1.13;81.57
77120;BME280;66073;47.730;9.352;2023-01-24T06:16:04;97945.53;;;1.24;81.31
77120;BME280;66073;47.730;9.352;2023-01-24T06:18:30;97950.31;;;1.35;80.93
77120;BME280;66073;47.730;9.352;2023-01-24T06:20:56;97951.16;;;1.21;80.84
77120;BME280;66073;47.730;9.352;2023-01-24T06:23:27;97954.78;;;1.20;81.08
77120;BME280;66073;47.730;9.352;2023-01-24T06:25:53;97956.13;;;1.31;80.62
77120;BME280;66073;47.730;9.352;2023-01-24T06:28:19;97956.63;;;1.41;80.43
77120;BME280;66073;47.730;9.352;2023-01-24T06:30:54;97962.41;;;1.51;80.11
77120;BME280;66073;47.730;9.352;2023-01-24T06:33:51;97974.94;;;1.49;80.33
77120;BME280;66073;47.730;9.352;2023-01-24T06:38:56;97985.66;;;1.33;80.22
77120;BME280;66073;47.730;9.352;2023-01-24T06:41:21;97988.47;;;1.46;79.95
77120;BME280;66073;47.730;9.352;2023-01-24T06:43:47;97986.69;;;1.32;80.58
77120;BME280;66073;47.730;9.352;2023-01-24T06:46:13;97997.53;;;1.43;80.05
77120;BME280;66073;47.730;9.352;2023-01-24T06:48:42;98001.69;;;1.53;79.91
77120;BME280;66073;47.730;9.352;2023-01-24T06:51:11;98003.84;;;1.64;79.12
77120;BME280;66073;47.730;9.352;2023-01-24T06:53:37;98007.97;;;1.37;79.66
77120;BME280;66073;47.730;9.352;2023-01-24T06:56:03;98004.72;;;1.35;79.90
77120;BME280;66073;47.730;9.352;2023-01-24T06:58:29;97996.72;;;1.43;79.94
77120;BME280;66073;47.730;9.352;2023-01-24T07:00:54;98003.06;;;1.48;79.84
77120;BME280;66073;47.730;9.352;2023-01-24T07:03:20;98010.00;;;1.35;80.56
77120;BME280;66073;47.730;9.352;2023-01-24T07:05:47;98007.00;;;1.23;80.60
77120;BME280;66073;47.730;9.352;2023-01-24T07:08:12;98010.50;;;1.45;79.85
77120;BME280;66073;47.730;9.352;2023-01-24T07:10:38;98010.75;;;1.50;79.41
77120;BME280;66073;47.730;9.352;2023-01-24T07:13:04;98012.63;;;1.35;79.95
77120;BME280;66073;47.730;9.352;2023-01-24T07:15:29;98024.66;;;1.44;79.88
77120;BME280;66073;47.730;9.352;2023-01-24T07:17:55;98024.38;;;1.54;79.83
77120;BME280;66073;47.730;9.352;2023-01-24T07:20:21;98021.66;;;1.47;79.50
77120;BME280;66073;47.730;9.352;2023-01-24T07:22:47;98021.81;;;1.75;78.91
77120;BME280;66073;47.730;9.352;2023-01-24T07:25:18;98027.84;;;1.75;78.61
77120;BME280;66073;47.730;9.352;2023-01-24T07:27:45;98036.53;;;1.90;78.69
77120;BME280;66073;47.730;9.352;2023-01-24T07:30:12;98031.28;;;1.90;78.10
77120;BME280;66073;47.730;9.352;2023-01-24T07:32:38;98036.72;;;1.53;79.09
77120;BME280;66073;47.730;9.352;2023-01-24T07:35:05;98028.91;;;1.60;79.22
77120;BME280;66073;47.730;9.352;2023-01-24T07:37:30;98033.81;;;1.63;78.89
77120;BME280;66073;47.730;9.352;2023-01-24T07:39:56;98036.53;;;1.40;79.64
77120;BME280;66073;47.730;9.352;2023-01-24T07:42:22;98036.69;;;1.68;79.35
77120;BME280;66073;47.730;9.352;2023-01-24T07:44:48;98036.81;;;1.45;79.55
77120;BME280;66073;47.730;9.352;2023-01-24T07:47:14;98035.56;;;1.41;80.47
77120;BME280;66073;47.730;9.352;2023-01-24T07:49:39;98047.88;;;1.55;79.74
77120;BME280;66073;47.730;9.352;2023-01-24T07:52:05;98048.75;;;1.62;79.37
77120;BME280;66073;47.730;9.352;2023-01-24T07:54:30;98053.88;;;1.49;79.69
77120;BME280;66073;47.730;9.352;2023-01-24T07:56:56;98049.00;;;1.31;79.92
77120;BME280;66073;47.730;9.352;2023-01-24T07:59:21;98055.66;;;1.63;79.64
77120;BME280;66073;47.730;9.352;2023-01-24T08:01:47;98055.16;;;1.53;80.01
77120;BME280;66073;47.730;9.352;2023-01-24T08:04:13;98056.19;;;1.73;79.40
77120;BME280;66073;47.730;9.352;2023-01-24T08:06:39;98057.38;;;1.71;79.20
77120;BME280;66073;47.730;9.352;2023-01-24T08:09:28;98062.38;;;1.51;79.39
77120;BME280;66073;47.730;9.352;2023-01-24T08:11:56;98062.00;;;1.54;79.65
77120;BME280;66073;47.730;9.352;2023-01-24T08:14:21;98061.91;;;1.77;78.59
77120;BME280;66073;47.730;9.352;2023-01-24T08:16:48;98067.09;;;1.70;79.26
77120;BME280;66073;47.730;9.352;2023-01-24T08:19:14;98062.56;;;2.00;78.53
77120;BME280;66073;47.730;9.352;2023-01-24T08:21:40;98074.19;;;1.55;79.72
77120;BME280;66073;47.730;9.352;2023-01-24T08:24:06;98073.44;;;1.61;80.03
77120;BME280;66073;47.730;9.352;2023-01-24T08:26:33;98064.72;;;1.75;79.62
77120;BME280;66073;47.730;9.352;2023-01-24T08:28:58;98072.25;;;1.78;78.43
77120;BME280;66073;47.730;9.352;2023-01-24T08:31:24;98072.50;;;1.83;78.92
77120;BME280;66073;47.730;9.352;2023-01-24T08:33:49;98077.88;;;1.61;79.80
77120;BME280;66073;47.730;9.352;2023-01-24T08:36:15;98080.34;;;1.62;79.46
77120;BME280;66073;47.730;9.352;2023-01-24T08:38:40;98082.44;;;1.67;79.42
77120;BME280;66073;47.730;9.352;2023-01-24T08:41:05;98079.34;;;1.78;78.81
77120;BME280;66073;47.730;9.352;2023-01-24T08:43:32;98080.72;;;2.10;77.75
77120;BME280;66073;47.730;9.352;2023-01-24T08:45:57;98085.53;;;2.06;77.96
77120;BME280;66073;47.730;9.352;2023-01-24T08:48:23;98087.72;;;2.03;78.06
77120;BME280;66073;47.730;9.352;2023-01-24T08:50:48;98092.63;;;2.06;77.87
77120;BME280;66073;47.730;9.352;2023-01-24T08:53:14;98095.88;;;2.08;78.38
77120;BME280;66073;47.730;9.352;2023-01-24T08:55:40;98090.00;;;2.27;77.46
77120;BME280;66073;47.730;9.352;2023-01-24T08:58:06;98089.00;;;2.07;78.17
77120;BME280;66073;47.730;9.352;2023-01-24T09:00:32;98095.75;;;1.80;78.82
77120;BME280;66073;47.730;9.352;2023-01-24T09:02:58;98096.41;;;1.67;79.27
77120;BME280;66073;47.730;9.352;2023-01-24T09:05:27;98098.53;;;1.93;78.92
77120;BME280;66073;47.730;9.352;2023-01-24T09:07:53;98101.28;;;1.85;78.82
77120;BME280;66073;47.730;9.352;2023-01-24T09:10:18;98105.81;;;1.91;78.44
77120;BME280;66073;47.730;9.352;2023-01-24T09:12:44;98109.16;;;1.99;78.51
77120;BME280;66073;47.730;9.352;2023-01-24T09:15:09;98104.00;;;1.91;78.72
77120;BME280;66073;47.730;9.352;2023-01-24T09:17:36;98112.00;;;1.69;79.53
77120;BME280;66073;47.730;9.352;2023-01-24T09:20:02;98106.47;;;1.78;79.65
77120;BME280;66073;47.730;9.352;2023-01-24T09:22:28;98114.38;;;2.14;78.60
77120;BME280;66073;47.730;9.352;2023-01-24T09:24:54;98109.59;;;2.03;78.54
77120;BME280;66073;47.730;9.352;2023-01-24T09:27:20;98118.63;;;1.79;79.30
77120;BME280;66073;47.730;9.352;2023-01-24T09:29:45;98122.66;;;1.96;78.91
77120;BME280;66073;47.730;9.352;2023-01-24T09:32:11;98129.78;;;1.81;79.94
77120;BME280;66073;47.730;9.352;2023-01-24T09:34:38;98114.78;;;1.96;79.22
77120;BME280;66073;47.730;9.352;2023-01-24T09:37:12;98120.94;;;2.04;78.88
77120;BME280;66073;47.730;9.352;2023-01-24T09:39:41;98126.56;;;2.00;78.93
77120;BME280;66073;47.730;9.352;2023-01-24T09:42:16;98126.41;;;1.87;78.95
77120;BME280;66073;47.730;9.352;2023-01-24T09:47:42;98129.72;;;1.75;79.64
77120;BME280;66073;47.730;9.352;2023-01-24T09:50:17;98126.78;;;1.84;79.58
77120;BME280;66073;47.730;9.352;2023-01-24T09:52:51;98124.19;;;2.20;78.32
77120;BME280;66073;47.730;9.352;2023-01-24T09:55:37;98131.41;;;2.33;78.13
77120;BME280;66073;47.730;9.352;2023-01-24T09:58:38;98126.03;;;2.41;77.49
77120;BME280;66073;47.730;9.352;2023-01-24T10:01:11;98132.72;;;2.08;78.16
77120;BME280;66073;47.730;9.352;2023-01-24T10:03:37;98126.06;;;1.90;78.89
77120;BME280;66073;47.730;9.352;2023-01-24T10:06:24;98129.72;;;2.11;78.86
77120;BME280;66073;47.730;9.352;2023-01-24T10:09:20;98129.19;;;2.15;78.08
77120;BME280;66073;47.730;9.352;2023-01-24T10:17:35;98138.19;;;2.21;77.64
77120;BME280;66073;47.730;9.352;2023-01-24T10:25:14;98143.16;;;2.16;77.83
77120;BME280;66073;47.730;9.352;2023-01-24T10:27:46;98143.28;;;2.08;78.02
77120;BME280;66073;47.730;9.352;2023-01-24T10:30:28;98142.63;;;2.20;78.37
77120;BME280;66073;47.730;9.352;2023-01-24T10:33:01;98134.16;;;2.25;77.77
77120;BME280;66073;47.730;9.352;2023-01-24T10:35:55;98137.09;;;2.15;78.46
77120;BME280;66073;47.730;9.352;2023-01-24T10:38:22;98138.81;;;2.44;77.48
77120;BME280;66073;47.730;9.352;2023-01-24T10:40:54;98131.72;;;2.23;78.11
77120;BME280;66073;47.730;9.352;2023-01-24T10:43:24;98134.22;;;1.95;78.57
77120;BME280;66073;47.730;9.352;2023-01-24T10:48:52;98127.84;;;2.05;78.56
77120;BME280;66073;47.730;9.352;2023-01-24T10:51:21;98129.28;;;2.07;78.63
77120;BME280;66073;47.730;9.352;2023-01-24T10:53:48;98125.09;;;2.13;78.50
77120;BME280;66073;47.730;9.352;2023-01-24T10:56:18;98122.91;;;2.52;77.44
77120;BME280;66073;47.730;9.352;2023-01-24T10:59:08;98125.41;;;2.60;76.33
77120;BME280;66073;47.730;9.352;2023-01-24T11:01:43;98126.50;;;2.30;77.50
77120;BME280;66073;47.730;9.352;2023-01-24T11:06:45;98113.19;;;2.53;76.97
77120;BME280;66073;47.730;9.352;2023-01-24T11:09:27;98124.16;;;2.77;76.28
77120;BME280;66073;47.730;9.352;2023-01-24T11:11:58;98119.88;;;2.55;76.35
77120;BME280;66073;47.730;9.352;2023-01-24T11:14:27;98118.25;;;2.54;77.25
77120;BME280;66073;47.730;9.352;2023-01-24T11:16:55;98118.25;;;2.75;76.65
77120;BME280;66073;47.730;9.352;2023-01-24T11:19:29;98109.16;;;2.35;78.02
77120;BME280;66073;47.730;9.352;2023-01-24T11:21:57;98109.94;;;2.36;77.91
77120;BME280;66073;47.730;9.352;2023-01-24T11:24:25;98107.25;;;2.50;77.66
77120;BME280;66073;47.730;9.352;2023-01-24T11:29:18;98100.88;;;2.60;77.29
77120;BME280;66073;47.730;9.352;2023-01-24T11:31:57;98109.84;;;2.65;77.29
77120;BME280;66073;47.730;9.352;2023-01-24T11:34:46;98105.72;;;2.56;77.70
77120;BME280;66073;47.730;9.352;2023-01-24T11:37:42;98108.78;;;2.38;78.62
77120;BME280;66073;47.730;9.352;2023-01-24T11:40:29;98108.09;;;2.51;78.70
77120;BME280;66073;47.730;9.352;2023-01-24T11:43:19;98105.50;;;2.58;78.41
77120;BME280;66073;47.730;9.352;2023-01-24T11:45:54;98102.69;;;2.59;78.68
77120;BME280;66073;47.730;9.352;2023-01-24T12:10:46;98089.69;;;2.15;79.67
77120;BME280;66073;47.730;9.352;2023-01-24T12:21:20;98088.13;;;2.21;78.96
77120;BME280;66073;47.730;9.352;2023-01-24T12:24:01;98085.38;;;2.50;78.38
77120;BME280;66073;47.730;9.352;2023-01-24T12:26:39;98073.38;;;2.69;77.93
77120;BME280;66073;47.730;9.352;2023-01-24T12:31:56;98081.63;;;2.38;78.24
77120;BME280;66073;47.730;9.352;2023-01-24T12:37:23;98083.47;;;2.23;79.24
77120;BME280;66073;47.730;9.352;2023-01-24T12:48:46;98077.38;;;2.65;77.85
77120;BME280;66073;47.730;9.352;2023-01-24T12:51:29;98069.69;;;2.42;78.29
77120;BME280;66073;47.730;9.352;2023-01-24T12:54:02;98071.94;;;2.45;78.40
77120;BME280;66073;47.730;9.352;2023-01-24T12:59:29;98077.84;;;2.26;78.63
77120;BME280;66073;47.730;9.352;2023-01-24T13:04:55;98073.06;;;2.36;78.70
77120;BME280;66073;47.730;9.352;2023-01-24T13:08:01;98069.31;;;2.24;78.78
77120;BME280;66073;47.730;9.352;2023-01-24T13:13:43;98065.75;;;2.31;78.80
77120;BME280;66073;47.730;9.352;2023-01-24T13:24:50;98069.75;;;2.27;79.42
77120;BME280;66073;47.730;9.352;2023-01-24T13:27:51;98065.53;;;2.54;78.14
77120;BME280;66073;47.730;9.352;2023-01-24T13:33:15;98075.63;;;2.08;79.56
77120;BME280;66073;47.730;9.352;2023-01-24T13:36:05;98071.56;;;2.06;79.47
77120;BME280;66073;47.730;9.352;2023-01-24T13:38:40;98068.53;;;2.09;79.93
77120;BME280;66073;47.730;9.352;2023-01-24T13:41:14;98073.16;;;2.42;78.86
77120;BME280;66073;47.730;9.352;2023-01-24T13:46:13;98065.44;;;2.41;78.69
77120;BME280;66073;47.730;9.352;2023-01-24T13:48:43;98069.19;;;2.32;79.27
77120;BME280;66073;47.730;9.352;2023-01-24T13:54:03;98082.66;;;2.43;79.06
77120;BME280;66073;47.730;9.352;2023-01-24T13:56:30;98079.34;;;2.56;78.18
77120;BME280;66073;47.730;9.352;2023-01-24T13:58:56;98072.94;;;2.44;78.72
77120;BME280;66073;47.730;9.352;2023-01-24T14:01:24;98071.44;;;2.56;77.98
77120;BME280;66073;47.730;9.352;2023-01-24T14:04:02;98077.53;;;2.78;77.93
77120;BME280;66073;47.730;9.352;2023-01-24T14:06:45;98072.94;;;2.65;78.16
77120;BME280;66073;47.730;9.352;2023-01-24T14:09:21;98081.28;;;2.26;79.55
77120;BME280;66073;47.730;9.352;2023-01-24T14:11:58;98085.88;;;2.39;79.49
77120;BME280;66073;47.730;9.352;2023-01-24T14:14:31;98084.38;;;2.51;79.28
77120;BME280;66073;47.730;9.352;2023-01-24T14:17:23;98076.94;;;2.61;78.22
77120;BME280;66073;47.730;9.352;2023-01-24T14:19:52;98080.53;;;1.96;80.35
77120;BME280;66073;47.730;9.352;2023-01-24T14:22:21;98087.09;;;2.22;80.16
77120;BME280;66073;47.730;9.352;2023-01-24T14:25:00;98091.22;;;2.24;79.86
77120;BME280;66073;47.730;9.352;2023-01-24T14:27:45;98096.94;;;2.49;79.20
77120;BME280;66073;47.730;9.352;2023-01-24T14:35:27;98110.44;;;2.25;79.47
77120;BME280;66073;47.730;9.352;2023-01-24T14:37:53;98110.00;;;2.21;79.89
77120;BME280;66073;47.730;9.352;2023-01-24T14:40:38;98104.34;;;2.39;78.72
77120;BME280;66073;47.730;9.352;2023-01-24T14:43:04;98102.38;;;2.47;78.60
77120;BME280;66073;47.730;9.352;2023-01-24T14:45:34;98094.59;;;2.39;79.50
77120;BME280;66073;47.730;9.352;2023-01-24T14:48:06;98094.66;;;2.46;79.03
77120;BME280;66073;47.730;9.352;2023-01-24T14:50:35;98104.19;;;2.47;79.39
77120;BME280;66073;47.730;9.352;2023-01-24T14:53:25;98104.81;;;2.28;79.44
77120;BME280;66073;47.730;9.352;2023-01-24T14:55:54;98104.84;;;2.49;78.68
77120;BME280;66073;47.730;9.352;2023-01-24T14:58:25;98114.13;;;2.66;78.21
77120;BME280;66073;47.730;9.352;2023-01-24T15:01:00;98111.91;;;2.48;78.98
77120;BME280;66073;47.730;9.352;2023-01-24T15:03:29;98115.59;;;2.54;78.27
77120;BME280;66073;47.730;9.352;2023-01-24T15:06:06;98118.00;;;2.28;78.84
77120;BME280;66073;47.730;9.352;2023-01-24T15:08:33;98125.13;;;2.34;79.00
77120;BME280;66073;47.730;9.352;2023-01-24T15:11:15;98120.94;;;2.39;78.52
77120;BME280;66073;47.730;9.352;2023-01-24T15:13:45;98128.78;;;2.54;78.66